createdAt,value
2017-02-15T00:00:07.522Z,1027.02
2017-02-15T00:00:17.941Z,1027.02
2017-02-15T00:00:27.934Z,1027.03
2017-02-15T00:00:37.931Z,1026.98
2017-02-15T00:00:47.091Z,1027.03
2017-02-15T00:00:57.916Z,1026.96
2017-02-15T00:01:07.900Z,1027.02
2017-02-15T00:01:17.899Z,1027.03
2017-02-15T00:01:27.886Z,1027.07
2017-02-15T00:01:37.883Z,1027
2017-02-15T00:01:47.876Z,1027
2017-02-15T00:01:57.876Z,1027.01
2017-02-15T00:02:07.445Z,1026.99
2017-02-15T00:02:18.146Z,1027
2017-02-15T00:02:27.854Z,1027
2017-02-15T00:02:37.845Z,1027.05
2017-02-15T00:02:47.846Z,1027.02
2017-02-15T00:02:57.837Z,1027.02
2017-02-15T00:03:07.829Z,1026.99
2017-02-15T00:03:17.808Z,1027.06
2017-02-15T00:03:27.399Z,1027.02
2017-02-15T00:03:37.811Z,1026.98
2017-02-15T00:03:48.080Z,1027.01
2017-02-15T00:03:57.797Z,1026.98
2017-02-15T00:04:07.783Z,1027.03
2017-02-15T00:04:17.773Z,1027
2017-02-15T00:04:27.777Z,1027.01
2017-02-15T00:04:37.769Z,1027.02
2017-02-15T00:04:47.753Z,1026.94
2017-02-15T00:04:57.747Z,1026.99
2017-02-15T00:05:07.753Z,1026.96
2017-02-15T00:05:17.729Z,1026.97
2017-02-15T00:05:27.301Z,1026.96
2017-02-15T00:05:37.713Z,1026.99
2017-02-15T00:05:47.718Z,1026.95
2017-02-15T00:05:57.706Z,1026.95
2017-02-15T00:06:07.701Z,1026.97
2017-02-15T00:06:17.705Z,1026.95
2017-02-15T00:06:27.708Z,1026.99
2017-02-15T00:06:37.683Z,1026.93
2017-02-15T00:06:47.670Z,1026.94
2017-02-15T00:06:57.658Z,1026.97
2017-02-15T00:07:07.670Z,1026.9
2017-02-15T00:07:17.645Z,1027.01
2017-02-15T00:07:27.942Z,1026.99
2017-02-15T00:07:37.650Z,1027.05
2017-02-15T00:07:47.216Z,1026.97
2017-02-15T00:07:57.633Z,1026.98
2017-02-15T00:08:07.629Z,1026.96
2017-02-15T00:08:17.615Z,1026.89
2017-02-15T00:08:27.192Z,1026.92
2017-02-15T00:08:37.229Z,1026.92
2017-02-15T00:08:47.586Z,1026.93
2017-02-15T00:08:57.595Z,1026.94
2017-02-15T00:09:07.580Z,1026.98
2017-02-15T00:09:17.567Z,1026.95
2017-02-15T00:09:27.143Z,1026.98
2017-02-15T00:09:37.555Z,1026.99
2017-02-15T00:09:47.562Z,1026.94
2017-02-15T00:09:57.537Z,1026.98
2017-02-15T00:10:07.546Z,1026.94
2017-02-15T00:10:17.526Z,1026.94
2017-02-15T00:10:27.105Z,1027.01
2017-02-15T00:10:37.508Z,1026.92
2017-02-15T00:10:47.506Z,1027
2017-02-15T00:10:57.509Z,1027.03
2017-02-15T00:11:07.519Z,1026.97
2017-02-15T00:11:17.488Z,1026.96
2017-02-15T00:11:27.096Z,1026.99
2017-02-15T00:11:37.483Z,1026.98
2017-02-15T00:11:47.460Z,1026.96
2017-02-15T00:11:57.468Z,1026.99
2017-02-15T00:12:07.039Z,1026.97
2017-02-15T00:12:17.453Z,1027.06
2017-02-15T00:12:27.431Z,1027.04
2017-02-15T00:12:37.426Z,1026.98
2017-02-15T00:12:47.424Z,1026.95
2017-02-15T00:12:57.426Z,1026.99
2017-02-15T00:13:07.407Z,1027.01
2017-02-15T00:13:17.420Z,1026.97
2017-02-15T00:13:27.677Z,1027.02
2017-02-15T00:13:37.692Z,1027.01
2017-02-15T00:13:47.381Z,1026.97
2017-02-15T00:13:56.959Z,1027.05
2017-02-15T00:14:07.376Z,1027.02
2017-02-15T00:14:17.376Z,1027.03
2017-02-15T00:14:26.942Z,1026.97
2017-02-15T00:14:37.365Z,1027.02
2017-02-15T00:14:47.351Z,1026.99
2017-02-15T00:14:57.616Z,1026.99
2017-02-15T00:15:07.331Z,1026.96
2017-02-15T00:15:17.329Z,1027
2017-02-15T00:15:27.307Z,1026.98
2017-02-15T00:15:37.307Z,1027
2017-02-15T00:15:47.304Z,1026.98
2017-02-15T00:15:57.291Z,1026.98
2017-02-15T00:16:06.867Z,1026.98
2017-02-15T00:16:17.285Z,1027.02
2017-02-15T00:16:27.273Z,1026.99
2017-02-15T00:16:37.266Z,1026.98
2017-02-15T00:16:47.558Z,1026.99
2017-02-15T00:16:57.260Z,1026.98
2017-02-15T00:17:07.543Z,1027.02
2017-02-15T00:17:17.237Z,1026.97
2017-02-15T00:17:27.516Z,1026.99
2017-02-15T00:17:36.813Z,1027.01
2017-02-15T00:17:47.218Z,1027.01
2017-02-15T00:17:57.513Z,1026.96
2017-02-15T00:18:07.205Z,1026.94
2017-02-15T00:18:17.194Z,1026.98
2017-02-15T00:18:27.191Z,1026.98
2017-02-15T00:18:37.184Z,1027.01
2017-02-15T00:18:47.175Z,1026.98
2017-02-15T00:18:57.178Z,1026.97
2017-02-15T00:19:07.166Z,1026.97
2017-02-15T00:19:17.165Z,1026.96
2017-02-15T00:19:27.156Z,1026.98
2017-02-15T00:19:37.149Z,1027
2017-02-15T00:19:47.135Z,1026.96
2017-02-15T00:19:57.130Z,1026.95
2017-02-15T00:20:06.840Z,1026.95
2017-02-15T00:20:17.397Z,1026.95
2017-02-15T00:20:27.396Z,1027.02
2017-02-15T00:20:37.105Z,1026.94
2017-02-15T00:20:47.394Z,1026.92
2017-02-15T00:20:57.664Z,1026.94
2017-02-15T00:21:07.093Z,1026.94
2017-02-15T00:21:17.361Z,1026.93
2017-02-15T00:21:27.065Z,1026.99
2017-02-15T00:21:37.058Z,1026.94
2017-02-15T00:22:05.639Z,1026.98
2017-02-15T00:22:15.637Z,1026.98
2017-02-15T00:22:25.635Z,1026.98
2017-02-15T00:22:35.927Z,1026.93
2017-02-15T00:22:45.621Z,1026.94
2017-02-15T00:22:55.608Z,1026.98
2017-02-15T00:23:05.608Z,1026.91
2017-02-15T00:23:15.616Z,1026.98
2017-02-15T00:23:25.595Z,1026.95
2017-02-15T00:23:35.584Z,1026.91
2017-02-15T00:23:45.171Z,1026.91
2017-02-15T00:23:55.570Z,1026.94
2017-02-15T00:24:05.574Z,1026.9
2017-02-15T00:24:15.567Z,1026.9
2017-02-15T00:24:25.122Z,1026.89
2017-02-15T00:24:35.544Z,1026.85
2017-02-15T00:24:45.540Z,1026.88
2017-02-15T00:24:55.525Z,1026.88
2017-02-15T00:25:05.553Z,1026.91
2017-02-15T00:25:15.508Z,1026.87
2017-02-15T00:25:25.509Z,1026.9
2017-02-15T00:25:35.501Z,1026.92
2017-02-15T00:25:45.496Z,1026.91
2017-02-15T00:25:55.788Z,1026.9
2017-02-15T00:26:05.071Z,1026.87
2017-02-15T00:26:15.487Z,1026.94
2017-02-15T00:26:25.467Z,1026.91
2017-02-15T00:26:35.469Z,1026.9
2017-02-15T00:26:45.453Z,1026.92
2017-02-15T00:26:55.729Z,1026.89
2017-02-15T00:27:05.438Z,1026.89
2017-02-15T00:27:15.720Z,1026.9
2017-02-15T00:27:25.446Z,1026.9
2017-02-15T00:27:35.423Z,1026.92
2017-02-15T00:27:45.008Z,1026.92
2017-02-15T00:27:55.423Z,1026.9
2017-02-15T00:28:05.395Z,1026.89
2017-02-15T00:28:15.427Z,1026.9
2017-02-15T00:28:25.400Z,1026.91
2017-02-15T00:28:35.394Z,1026.88
2017-02-15T00:28:45.373Z,1026.89
2017-02-15T00:28:55.364Z,1026.87
2017-02-15T00:29:04.947Z,1026.9
2017-02-15T00:29:14.515Z,1026.89
2017-02-15T00:29:25.346Z,1026.9
2017-02-15T00:29:35.349Z,1026.88
2017-02-15T00:29:44.911Z,1026.88
2017-02-15T00:29:55.336Z,1026.9
2017-02-15T00:30:05.321Z,1026.88
2017-02-15T00:30:15.308Z,1026.88
2017-02-15T00:30:25.305Z,1026.91
2017-02-15T00:30:35.293Z,1026.91
2017-02-15T00:30:45.298Z,1026.93
2017-02-15T00:30:55.281Z,1026.91
2017-02-15T00:31:05.571Z,1026.85
2017-02-15T00:31:15.265Z,1026.94
2017-02-15T00:31:24.840Z,1026.87
2017-02-15T00:31:35.287Z,1026.89
2017-02-15T00:31:45.259Z,1026.9
2017-02-15T00:31:55.252Z,1026.88
2017-02-15T00:32:04.819Z,1026.89
2017-02-15T00:32:15.507Z,1026.91
2017-02-15T00:32:25.226Z,1026.91
2017-02-15T00:32:35.210Z,1026.9
2017-02-15T00:32:45.214Z,1026.87
2017-02-15T00:32:55.196Z,1026.86
2017-02-15T00:33:05.195Z,1026.88
2017-02-15T00:33:15.200Z,1026.94
2017-02-15T00:33:25.193Z,1026.88
2017-02-15T00:33:35.179Z,1026.88
2017-02-15T00:33:45.182Z,1026.96
2017-02-15T00:33:55.173Z,1026.92
2017-02-15T00:34:05.161Z,1026.93
2017-02-15T00:34:15.147Z,1026.94
2017-02-15T00:34:25.134Z,1026.98
2017-02-15T00:34:35.419Z,1026.92
2017-02-15T00:34:45.142Z,1026.95
2017-02-15T00:34:55.125Z,1026.98
2017-02-15T00:35:05.397Z,1026.9
2017-02-15T00:35:14.263Z,1026.91
2017-02-15T00:35:25.099Z,1026.9
2017-02-15T00:35:34.667Z,1026.93
2017-02-15T00:35:45.097Z,1026.92
2017-02-15T00:35:55.376Z,1026.92
2017-02-15T00:36:05.067Z,1026.9
2017-02-15T00:36:15.074Z,1026.95
2017-02-15T00:36:25.053Z,1026.99
2017-02-15T00:36:35.060Z,1026.95
2017-02-15T00:36:45.040Z,1027
2017-02-15T00:36:55.319Z,1026.98
2017-02-15T00:37:04.610Z,1026.97
2017-02-15T00:37:15.016Z,1026.92
2017-02-15T00:37:25.010Z,1026.97
2017-02-15T00:37:35.009Z,1026.96
2017-02-15T00:37:44.590Z,1026.98
2017-02-15T00:37:54.992Z,1026.95
2017-02-15T00:38:05.003Z,1026.95
2017-02-15T00:38:14.984Z,1026.97
2017-02-15T00:38:24.979Z,1026.92
2017-02-15T00:38:34.979Z,1026.97
2017-02-15T00:38:44.975Z,1026.96
2017-02-15T00:38:54.959Z,1026.94
2017-02-15T00:39:04.944Z,1026.97
2017-02-15T00:39:14.117Z,1026.96
2017-02-15T00:39:24.938Z,1026.92
2017-02-15T00:39:34.936Z,1026.98
2017-02-15T00:39:44.500Z,1027.02
2017-02-15T00:39:54.923Z,1026.97
2017-02-15T00:40:04.902Z,1026.95
2017-02-15T00:40:14.202Z,1026.95
2017-02-15T00:40:24.896Z,1026.95
2017-02-15T00:40:34.884Z,1026.93
2017-02-15T00:40:44.889Z,1026.97
2017-02-15T00:40:55.169Z,1026.96
2017-02-15T00:41:05.150Z,1026.96
2017-02-15T00:41:14.853Z,1026.99
2017-02-15T00:41:24.850Z,1026.96
2017-02-15T00:41:34.843Z,1026.94
2017-02-15T00:41:44.836Z,1026.92
2017-02-15T00:41:54.829Z,1026.93
2017-02-15T00:42:04.398Z,1026.95
2017-02-15T00:42:14.822Z,1026.92
2017-02-15T00:42:24.818Z,1026.94
2017-02-15T00:42:34.819Z,1026.96
2017-02-15T00:42:44.790Z,1026.96
2017-02-15T00:42:55.071Z,1026.95
2017-02-15T00:43:04.375Z,1026.97
2017-02-15T00:43:14.775Z,1026.93
2017-02-15T00:43:24.763Z,1026.97
2017-02-15T00:43:34.351Z,1027.02
2017-02-15T00:43:44.750Z,1027.03
2017-02-15T00:43:54.747Z,1027
2017-02-15T00:44:04.738Z,1026.96
2017-02-15T00:44:14.741Z,1026.97
2017-02-15T00:44:24.311Z,1027.02
2017-02-15T00:44:34.717Z,1026.96
2017-02-15T00:44:44.718Z,1026.99
2017-02-15T00:44:54.703Z,1026.92
2017-02-15T00:45:04.705Z,1026.98
2017-02-15T00:45:14.697Z,1026.95
2017-02-15T00:45:24.695Z,1026.92
2017-02-15T00:45:34.260Z,1026.96
2017-02-15T00:45:44.670Z,1026.92
2017-02-15T00:45:54.666Z,1026.95
2017-02-15T00:46:04.661Z,1026.92
2017-02-15T00:46:14.651Z,1026.96
2017-02-15T00:46:24.934Z,1027
2017-02-15T00:46:34.222Z,1026.98
2017-02-15T00:46:44.626Z,1026.98
2017-02-15T00:46:54.623Z,1026.94
2017-02-15T00:47:04.196Z,1026.93
2017-02-15T00:47:14.613Z,1026.94
2017-02-15T00:47:24.609Z,1026.91
2017-02-15T00:47:34.597Z,1026.88
2017-02-15T00:47:44.596Z,1026.94
2017-02-15T00:47:54.575Z,1026.93
2017-02-15T00:48:04.571Z,1026.91
2017-02-15T00:48:14.571Z,1026.93
2017-02-15T00:48:24.567Z,1026.93
2017-02-15T00:48:34.566Z,1026.95
2017-02-15T00:48:44.544Z,1026.95
2017-02-15T00:48:54.534Z,1026.92
2017-02-15T00:49:04.534Z,1026.91
2017-02-15T00:49:14.531Z,1026.9
2017-02-15T00:49:24.522Z,1026.97
2017-02-15T00:49:34.508Z,1026.94
2017-02-15T00:49:44.224Z,1026.95
2017-02-15T00:49:54.787Z,1026.96
2017-02-15T00:50:04.072Z,1026.97
2017-02-15T00:50:14.064Z,1026.94
2017-02-15T00:50:24.058Z,1026.88
2017-02-15T00:50:34.480Z,1026.95
2017-02-15T00:50:44.487Z,1026.92
2017-02-15T00:50:54.456Z,1026.94
2017-02-15T00:51:04.459Z,1026.95
2017-02-15T00:51:14.440Z,1026.94
2017-02-15T00:51:24.444Z,1026.96
2017-02-15T00:51:34.011Z,1026.96
2017-02-15T00:51:44.437Z,1026.88
2017-02-15T00:51:54.415Z,1026.88
2017-02-15T00:52:04.416Z,1026.95
2017-02-15T00:52:14.410Z,1026.96
2017-02-15T00:52:24.402Z,1026.92
2017-02-15T00:52:34.390Z,1026.9
2017-02-15T00:52:44.391Z,1026.93
2017-02-15T00:52:54.371Z,1026.95
2017-02-15T00:53:04.363Z,1026.91
2017-02-15T00:53:14.649Z,1026.94
2017-02-15T00:53:24.353Z,1026.89
2017-02-15T00:53:34.358Z,1026.9
2017-02-15T00:53:44.352Z,1026.93
2017-02-15T00:53:54.346Z,1026.93
2017-02-15T00:54:04.333Z,1026.9
2017-02-15T00:54:14.328Z,1026.93
2017-02-15T00:54:24.321Z,1026.93
2017-02-15T00:54:34.303Z,1026.94
2017-02-15T00:54:44.313Z,1026.92
2017-02-15T00:54:54.590Z,1026.94
2017-02-15T00:55:03.481Z,1026.9
2017-02-15T00:55:13.865Z,1026.93
2017-02-15T00:55:24.273Z,1026.9
2017-02-15T00:55:33.861Z,1026.88
2017-02-15T00:55:44.259Z,1026.93
2017-02-15T00:55:54.539Z,1026.91
2017-02-15T00:56:04.248Z,1026.9
2017-02-15T00:56:13.842Z,1026.98
2017-02-15T00:56:24.234Z,1026.92
2017-02-15T00:56:34.218Z,1026.86
2017-02-15T00:56:44.245Z,1026.92
2017-02-15T00:56:54.505Z,1026.94
2017-02-15T00:57:03.806Z,1026.9
2017-02-15T00:57:13.912Z,1026.97
2017-02-15T00:57:24.195Z,1026.88
2017-02-15T00:57:34.477Z,1026.92
2017-02-15T00:57:44.176Z,1026.95
2017-02-15T00:57:54.481Z,1026.92
2017-02-15T00:58:04.177Z,1026.88
2017-02-15T00:58:13.736Z,1026.85
2017-02-15T00:58:24.145Z,1026.9
2017-02-15T00:58:34.136Z,1026.9
2017-02-15T00:58:44.138Z,1026.92
2017-02-15T00:58:54.430Z,1026.91
2017-02-15T00:59:04.130Z,1026.92
2017-02-15T00:59:14.122Z,1026.92
2017-02-15T00:59:24.377Z,1026.82
2017-02-15T00:59:34.097Z,1026.87
2017-02-15T00:59:44.385Z,1026.86
2017-02-15T00:59:54.088Z,1026.88
2017-02-15T01:00:03.666Z,1026.92
2017-02-15T01:00:14.080Z,1026.89
2017-02-15T01:00:24.068Z,1026.92
2017-02-15T01:00:34.057Z,1026.84
2017-02-15T01:00:44.054Z,1026.89
2017-02-15T01:00:54.064Z,1026.9
2017-02-15T01:01:04.037Z,1026.87
2017-02-15T01:01:14.029Z,1026.9
2017-02-15T01:01:24.040Z,1026.93
2017-02-15T01:01:34.021Z,1026.98
2017-02-15T01:01:44.306Z,1026.86
2017-02-15T01:01:54.011Z,1026.92
2017-02-15T01:02:03.581Z,1026.91
2017-02-15T01:02:13.589Z,1026.98
2017-02-15T01:02:23.983Z,1026.93
2017-02-15T01:02:34.005Z,1026.92
2017-02-15T01:02:43.978Z,1026.92
2017-02-15T01:02:53.974Z,1026.97
2017-02-15T01:03:03.957Z,1026.9
2017-02-15T01:03:13.960Z,1026.93
2017-02-15T01:03:23.948Z,1026.91
2017-02-15T01:03:33.936Z,1026.92
2017-02-15T01:03:43.938Z,1026.93
2017-02-15T01:03:53.941Z,1026.92
2017-02-15T01:04:03.931Z,1026.92
2017-02-15T01:04:13.901Z,1026.93
2017-02-15T01:04:24.192Z,1026.93
2017-02-15T01:04:33.893Z,1026.95
2017-02-15T01:04:43.467Z,1026.94
2017-02-15T01:04:53.886Z,1026.97
2017-02-15T01:05:03.873Z,1026.9
2017-02-15T01:05:13.448Z,1026.93
2017-02-15T01:05:23.865Z,1026.92
2017-02-15T01:05:33.861Z,1026.93
2017-02-15T01:05:43.847Z,1026.94
2017-02-15T01:05:53.833Z,1026.92
2017-02-15T01:06:04.124Z,1026.93
2017-02-15T01:06:13.821Z,1026.86
2017-02-15T01:06:23.835Z,1026.89
2017-02-15T01:06:33.826Z,1026.93
2017-02-15T01:06:43.814Z,1026.92
2017-02-15T01:06:53.793Z,1026.97
2017-02-15T01:07:03.371Z,1026.89
2017-02-15T01:07:13.794Z,1026.97
2017-02-15T01:07:23.771Z,1026.89
2017-02-15T01:07:33.770Z,1026.94
2017-02-15T01:07:43.768Z,1026.9
2017-02-15T01:07:53.775Z,1026.93
2017-02-15T01:08:03.751Z,1026.9
2017-02-15T01:08:12.915Z,1026.9
2017-02-15T01:08:23.733Z,1026.86
2017-02-15T01:08:33.739Z,1026.89
2017-02-15T01:08:43.733Z,1026.95
2017-02-15T01:08:53.723Z,1026.86
2017-02-15T01:09:03.730Z,1026.88
2017-02-15T01:09:13.283Z,1026.89
2017-02-15T01:09:23.705Z,1026.86
2017-02-15T01:09:33.686Z,1026.9
2017-02-15T01:09:42.853Z,1026.92
2017-02-15T01:09:53.708Z,1026.91
2017-02-15T01:10:03.665Z,1026.94
2017-02-15T01:10:13.662Z,1026.86
2017-02-15T01:10:23.649Z,1026.9
2017-02-15T01:10:33.650Z,1026.92
2017-02-15T01:10:43.635Z,1026.9
2017-02-15T01:10:53.644Z,1026.92
2017-02-15T01:11:03.628Z,1026.85
2017-02-15T01:11:13.616Z,1026.9
2017-02-15T01:11:23.625Z,1026.88
2017-02-15T01:11:33.892Z,1026.9
2017-02-15T01:11:43.592Z,1026.91
2017-02-15T01:11:53.596Z,1026.93
2017-02-15T01:12:03.588Z,1026.87
2017-02-15T01:12:13.574Z,1026.9
2017-02-15T01:12:23.572Z,1026.95
2017-02-15T01:12:33.566Z,1026.97
2017-02-15T01:12:43.556Z,1026.95
2017-02-15T01:12:53.563Z,1026.93
2017-02-15T01:13:03.540Z,1027
2017-02-15T01:13:13.536Z,1027
2017-02-15T01:13:23.532Z,1026.93
2017-02-15T01:13:33.532Z,1026.98
2017-02-15T01:13:43.550Z,1026.94
2017-02-15T01:13:53.509Z,1026.97
2017-02-15T01:14:03.505Z,1026.95
2017-02-15T01:14:13.494Z,1026.94
2017-02-15T01:14:23.493Z,1027
2017-02-15T01:14:33.486Z,1026.98
2017-02-15T01:14:43.082Z,1026.97
2017-02-15T01:14:53.466Z,1026.93
2017-02-15T01:15:03.466Z,1026.93
2017-02-15T01:15:13.463Z,1026.99
2017-02-15T01:15:23.170Z,1026.97
2017-02-15T01:15:33.746Z,1026.96
2017-02-15T01:15:43.028Z,1026.98
2017-02-15T01:15:53.424Z,1027
2017-02-15T01:16:03.422Z,1026.95
2017-02-15T01:16:13.408Z,1026.96
2017-02-15T01:16:23.001Z,1026.95
2017-02-15T01:16:33.402Z,1026.97
2017-02-15T01:16:43.393Z,1026.95
2017-02-15T01:16:53.394Z,1026.97
2017-02-15T01:17:03.384Z,1026.98
2017-02-15T01:17:13.653Z,1027.01
2017-02-15T01:17:23.653Z,1027
2017-02-15T01:17:33.364Z,1026.98
2017-02-15T01:17:43.355Z,1027
2017-02-15T01:17:53.347Z,1026.97
2017-02-15T01:18:03.350Z,1027.02
2017-02-15T01:18:13.322Z,1026.95
2017-02-15T01:18:23.333Z,1026.99
2017-02-15T01:18:33.325Z,1026.98
2017-02-15T01:18:43.320Z,1026.94
2017-02-15T01:18:53.304Z,1026.96
2017-02-15T01:19:03.309Z,1026.97
2017-02-15T01:19:13.296Z,1026.99
2017-02-15T01:19:23.567Z,1026.94
2017-02-15T01:19:33.280Z,1026.94
2017-02-15T01:19:43.269Z,1026.94
2017-02-15T01:19:53.269Z,1026.96
2017-02-15T01:20:03.251Z,1026.99
2017-02-15T01:20:13.246Z,1027
2017-02-15T01:20:23.246Z,1026.96
2017-02-15T01:20:33.233Z,1026.95
2017-02-15T01:20:43.225Z,1027
2017-02-15T01:20:53.231Z,1026.98
2017-02-15T01:21:03.500Z,1026.99
2017-02-15T01:21:13.213Z,1026.99
2017-02-15T01:21:23.204Z,1026.96
2017-02-15T01:21:33.203Z,1026.97
2017-02-15T01:21:43.217Z,1026.96
2017-02-15T01:21:53.201Z,1026.99
2017-02-15T01:22:03.170Z,1026.97
2017-02-15T01:22:13.161Z,1027.03
2017-02-15T01:22:23.160Z,1027.04
2017-02-15T01:22:33.151Z,1027.04
2017-02-15T01:22:42.732Z,1027.02
2017-02-15T01:22:53.145Z,1026.98
2017-02-15T01:23:03.128Z,1027.01
2017-02-15T01:23:13.122Z,1027.03
2017-02-15T01:23:23.136Z,1027.02
2017-02-15T01:23:33.107Z,1027.02
2017-02-15T01:23:43.096Z,1027.04
2017-02-15T01:23:53.377Z,1027.02
2017-02-15T01:24:03.390Z,1027
2017-02-15T01:24:13.082Z,1027.01
2017-02-15T01:24:23.081Z,1026.97
2017-02-15T01:24:32.654Z,1027.02
2017-02-15T01:24:43.071Z,1026.99
2017-02-15T01:24:53.353Z,1027.02
2017-02-15T01:25:03.049Z,1027.03
2017-02-15T01:25:13.051Z,1027.04
2017-02-15T01:25:23.046Z,1026.99
2017-02-15T01:25:33.039Z,1026.99
2017-02-15T01:25:43.023Z,1027.06
2017-02-15T01:25:53.010Z,1027.01
2017-02-15T01:26:03.050Z,1027.02
2017-02-15T01:26:12.173Z,1027.05
2017-02-15T01:26:22.993Z,1027.06
2017-02-15T01:26:33.268Z,1027.04
2017-02-15T01:26:42.558Z,1027.06
2017-02-15T01:26:52.972Z,1027.01
2017-02-15T01:27:02.971Z,1027.04
2017-02-15T01:27:12.958Z,1027.05
2017-02-15T01:27:22.949Z,1027.05
2017-02-15T01:27:32.945Z,1027
2017-02-15T01:27:42.946Z,1027.02
2017-02-15T01:27:52.927Z,1027.02
2017-02-15T01:28:02.923Z,1027.01
2017-02-15T01:28:13.212Z,1027.03
2017-02-15T01:28:22.908Z,1027.02
2017-02-15T01:28:32.479Z,1027.04
2017-02-15T01:28:42.904Z,1027.05
2017-02-15T01:28:52.885Z,1027.01
2017-02-15T01:29:02.881Z,1027.04
2017-02-15T01:29:12.877Z,1027.05
2017-02-15T01:29:22.871Z,1027.06
2017-02-15T01:29:32.866Z,1027.03
2017-02-15T01:29:42.867Z,1027.03
2017-02-15T01:29:53.157Z,1027.05
2017-02-15T01:30:03.132Z,1027.12
2017-02-15T01:30:12.415Z,1027.04
2017-02-15T01:30:22.832Z,1026.98
2017-02-15T01:30:32.400Z,1027.04
2017-02-15T01:30:42.821Z,1027.05
2017-02-15T01:30:52.815Z,1027.03
2017-02-15T01:31:02.807Z,1027
2017-02-15T01:31:12.795Z,1027.01
2017-02-15T01:31:22.787Z,1027.05
2017-02-15T01:31:32.931Z,1026.97
2017-02-15T01:31:42.771Z,1027.03
2017-02-15T01:31:52.763Z,1027.04
2017-02-15T01:32:02.780Z,1027.07
2017-02-15T01:32:12.763Z,1027.06
2017-02-15T01:32:22.744Z,1026.98
2017-02-15T01:32:32.747Z,1027.05
2017-02-15T01:32:43.016Z,1027
2017-02-15T01:32:52.728Z,1027.03
2017-02-15T01:33:02.734Z,1027.05
2017-02-15T01:33:13.001Z,1027
2017-02-15T01:33:22.704Z,1027.01
2017-02-15T01:33:32.706Z,1027.06
2017-02-15T01:33:42.692Z,1027.01
2017-02-15T01:33:52.686Z,1027.02
2017-02-15T01:34:02.283Z,1026.98
2017-02-15T01:34:12.670Z,1027.03
2017-02-15T01:34:22.665Z,1027
2017-02-15T01:34:32.658Z,1026.96
2017-02-15T01:34:42.673Z,1026.99
2017-02-15T01:34:52.649Z,1027.01
2017-02-15T01:35:02.224Z,1026.93
2017-02-15T01:35:12.631Z,1026.99
2017-02-15T01:35:22.626Z,1027
2017-02-15T01:35:32.615Z,1026.98
2017-02-15T01:35:42.920Z,1027.03
2017-02-15T01:35:52.620Z,1027.02
2017-02-15T01:36:02.598Z,1027.01
2017-02-15T01:36:12.886Z,1026.97
2017-02-15T01:36:22.579Z,1026.98
2017-02-15T01:36:32.579Z,1027
2017-02-15T01:36:42.574Z,1027.02
2017-02-15T01:36:52.562Z,1027
2017-02-15T01:37:02.557Z,1026.99
2017-02-15T01:37:12.556Z,1026.97
2017-02-15T01:37:22.257Z,1026.96
2017-02-15T01:37:32.527Z,1027.02
2017-02-15T01:37:42.526Z,1026.94
2017-02-15T01:37:52.533Z,1027
2017-02-15T01:38:02.525Z,1027
2017-02-15T01:38:12.517Z,1026.98
2017-02-15T01:38:22.494Z,1026.97
2017-02-15T01:38:32.489Z,1026.97
2017-02-15T01:38:42.069Z,1026.96
2017-02-15T01:38:52.473Z,1027
2017-02-15T01:39:02.471Z,1026.97
2017-02-15T01:39:12.481Z,1026.97
2017-02-15T01:39:22.459Z,1026.97
2017-02-15T01:39:32.455Z,1026.98
2017-02-15T01:39:42.459Z,1027
2017-02-15T01:39:52.017Z,1027.05
2017-02-15T01:40:02.433Z,1027.03
2017-02-15T01:40:12.008Z,1027
2017-02-15T01:40:22.417Z,1026.99
2017-02-15T01:40:32.400Z,1026.99
2017-02-15T01:40:42.398Z,1027.01
2017-02-15T01:40:52.392Z,1026.92
2017-02-15T01:41:02.397Z,1027
2017-02-15T01:41:12.380Z,1027
2017-02-15T01:41:22.405Z,1026.97
2017-02-15T01:41:32.365Z,1026.96
2017-02-15T01:41:42.361Z,1026.99
2017-02-15T01:41:52.355Z,1026.96
2017-02-15T01:42:02.359Z,1026.97
2017-02-15T01:42:12.340Z,1026.97
2017-02-15T01:42:22.328Z,1026.96
2017-02-15T01:42:32.318Z,1026.97
2017-02-15T01:42:42.319Z,1026.97
2017-02-15T01:42:52.309Z,1026.94
2017-02-15T01:43:02.318Z,1026.93
2017-02-15T01:43:12.298Z,1026.99
2017-02-15T01:43:22.291Z,1026.94
2017-02-15T01:43:32.280Z,1026.96
2017-02-15T01:43:42.288Z,1026.94
2017-02-15T01:43:52.268Z,1026.94
2017-02-15T01:44:02.266Z,1026.93
2017-02-15T01:44:12.268Z,1026.96
2017-02-15T01:44:22.259Z,1026.9
2017-02-15T01:44:32.242Z,1026.95
2017-02-15T01:44:42.234Z,1026.95
2017-02-15T01:44:52.255Z,1026.94
2017-02-15T01:45:02.220Z,1026.95
2017-02-15T01:45:12.219Z,1026.92
2017-02-15T01:45:22.212Z,1026.94
2017-02-15T01:45:31.786Z,1026.87
2017-02-15T01:45:42.510Z,1026.92
2017-02-15T01:45:52.195Z,1026.92
2017-02-15T01:46:01.767Z,1026.93
2017-02-15T01:46:12.181Z,1026.92
2017-02-15T01:46:22.163Z,1026.89
2017-02-15T01:46:32.450Z,1026.9
2017-02-15T01:46:42.148Z,1026.91
2017-02-15T01:46:52.429Z,1026.91
2017-02-15T01:47:02.138Z,1026.94
2017-02-15T01:47:12.133Z,1026.9
2017-02-15T01:47:22.120Z,1026.92
2017-02-15T01:47:31.701Z,1026.94
2017-02-15T01:47:42.111Z,1026.87
2017-02-15T01:47:52.118Z,1026.9
2017-02-15T01:48:02.096Z,1026.9
2017-02-15T01:48:11.688Z,1026.86
2017-02-15T01:48:22.090Z,1026.97
2017-02-15T01:48:32.080Z,1026.97
2017-02-15T01:48:42.066Z,1026.9
2017-02-15T01:48:52.062Z,1026.86
2017-02-15T01:49:02.057Z,1026.93
2017-02-15T01:49:12.051Z,1026.91
2017-02-15T01:49:22.036Z,1026.96
2017-02-15T01:49:32.045Z,1026.9
2017-02-15T01:49:42.037Z,1026.94
2017-02-15T01:49:52.016Z,1026.88
2017-02-15T01:50:01.607Z,1026.93
2017-02-15T01:50:12.013Z,1026.92
2017-02-15T01:50:22.021Z,1026.94
2017-02-15T01:50:32.004Z,1026.95
2017-02-15T01:50:41.588Z,1026.88
2017-02-15T01:50:51.568Z,1026.92
2017-02-15T01:51:01.984Z,1026.96
2017-02-15T01:51:11.979Z,1026.9
2017-02-15T01:51:21.955Z,1026.96
2017-02-15T01:51:31.949Z,1026.93
2017-02-15T01:51:41.955Z,1026.93
2017-02-15T01:51:51.934Z,1026.93
2017-02-15T01:52:01.936Z,1026.95
2017-02-15T01:52:11.932Z,1026.93
2017-02-15T01:52:21.503Z,1026.95
2017-02-15T01:52:31.916Z,1026.89
2017-02-15T01:52:41.918Z,1026.87
2017-02-15T01:52:51.897Z,1026.94
2017-02-15T01:53:01.889Z,1026.91
2017-02-15T01:53:11.887Z,1026.92
2017-02-15T01:53:22.170Z,1026.89
2017-02-15T01:53:31.447Z,1026.91
2017-02-15T01:53:42.151Z,1026.9
2017-02-15T01:53:51.435Z,1026.89
2017-02-15T01:54:01.857Z,1026.88
2017-02-15T01:54:11.834Z,1026.87
2017-02-15T01:54:21.852Z,1026.9
2017-02-15T01:54:31.405Z,1026.87
2017-02-15T01:54:41.833Z,1026.85
2017-02-15T01:54:51.818Z,1026.85
2017-02-15T01:55:01.815Z,1026.81
2017-02-15T01:55:11.803Z,1026.87
2017-02-15T01:55:21.797Z,1026.84
2017-02-15T01:55:31.802Z,1026.84
2017-02-15T01:55:41.778Z,1026.89
2017-02-15T01:55:51.351Z,1026.84
2017-02-15T01:56:01.763Z,1026.88
2017-02-15T01:56:11.349Z,1026.86
2017-02-15T01:56:21.766Z,1026.83
2017-02-15T01:56:31.743Z,1026.91
2017-02-15T01:56:42.018Z,1026.86
2017-02-15T01:56:51.765Z,1026.89
2017-02-15T01:57:01.732Z,1026.87
2017-02-15T01:57:11.720Z,1026.87
2017-02-15T01:57:21.703Z,1026.87
2017-02-15T01:57:31.706Z,1026.88
2017-02-15T01:57:41.703Z,1026.85
2017-02-15T01:57:51.685Z,1026.85
2017-02-15T01:58:01.700Z,1026.89
2017-02-15T01:58:11.673Z,1026.85
2017-02-15T01:58:21.670Z,1026.9
2017-02-15T01:58:31.662Z,1026.87
2017-02-15T01:58:41.648Z,1026.88
2017-02-15T01:58:51.665Z,1026.93
2017-02-15T01:59:01.652Z,1026.9
2017-02-15T01:59:11.637Z,1026.88
2017-02-15T01:59:21.627Z,1026.86
2017-02-15T01:59:31.631Z,1026.88
2017-02-15T01:59:41.626Z,1026.94
2017-02-15T01:59:51.616Z,1026.89
2017-02-15T02:00:01.601Z,1026.88
2017-02-15T02:00:11.597Z,1026.91
2017-02-15T02:00:21.595Z,1026.89
2017-02-15T02:00:31.871Z,1026.91
2017-02-15T02:00:41.569Z,1026.92
2017-02-15T02:00:51.568Z,1026.87
2017-02-15T02:01:01.274Z,1026.9
2017-02-15T02:01:11.551Z,1026.86
2017-02-15T02:01:21.546Z,1026.86
2017-02-15T02:01:31.533Z,1026.87
2017-02-15T02:01:41.532Z,1026.9
2017-02-15T02:01:51.520Z,1026.88
2017-02-15T02:02:01.108Z,1026.91